createdAt,value
2023-02-27T00:04:57.877Z,100.00
2023-02-27T00:10:02.946Z,100.00
2023-02-27T00:15:08.747Z,100.00
2023-02-27T00:20:15.985Z,100.00
2023-02-27T00:25:21.119Z,100.00
2023-02-27T00:30:26.454Z,100.00
2023-02-27T00:35:30.362Z,100.00
2023-02-27T00:40:36.321Z,100.00
2023-02-27T00:45:40.006Z,100.00
2023-02-27T00:50:43.901Z,100.00
2023-02-27T00:55:48.908Z,100.00
2023-02-27T01:00:52.666Z,100.00
2023-02-27T01:05:56.529Z,100.00
2023-02-27T01:11:03.206Z,100.00
2023-02-27T01:16:10.538Z,100.00
2023-02-27T01:21:14.361Z,100.00
2023-02-27T01:26:19.457Z,100.00
2023-02-27T01:31:23.161Z,100.00
2023-02-27T01:36:27.020Z,100.00
2023-02-27T01:41:32.167Z,100.00
2023-02-27T01:46:38.876Z,100.00
2023-02-27T01:51:47.182Z,100.00
2023-02-27T01:56:52.741Z,100.00
2023-02-27T02:01:58.171Z,100.00
2023-02-27T02:07:05.066Z,100.00
2023-02-27T02:12:12.815Z,100.00
2023-02-27T02:17:25.978Z,100.00
2023-02-27T02:22:54.428Z,100.00
2023-02-27T02:28:11.153Z,100.00
2023-02-27T02:33:51.576Z,100.00
2023-02-27T02:39:18.405Z,100.00
2023-02-27T02:44:31.985Z,100.00
2023-02-27T02:49:46.552Z,100.00
2023-02-27T02:54:59.022Z,100.00
2023-02-27T03:00:07.434Z,100.00
2023-02-27T03:05:18.407Z,100.00
2023-02-27T03:10:28.263Z,100.00
2023-02-27T03:15:37.595Z,100.00
2023-02-27T03:20:46.567Z,100.00
2023-02-27T03:25:57.187Z,100.00
2023-02-27T03:31:10.050Z,100.00
2023-02-27T03:36:27.504Z,100.00
2023-02-27T03:41:37.729Z,100.00
2023-02-27T03:46:44.650Z,100.00
2023-02-27T03:51:48.574Z,100.00
2023-02-27T03:56:58.293Z,100.00
2023-02-27T04:02:03.835Z,100.00
2023-02-27T04:07:26.381Z,100.00
2023-02-27T04:12:53.934Z,100.00
2023-02-27T04:18:09.506Z,100.00
2023-02-27T04:23:19.291Z,100.00
2023-02-27T04:28:28.682Z,100.00
2023-02-27T04:33:43.686Z,100.00
2023-02-27T04:38:51.927Z,100.00
2023-02-27T04:43:58.358Z,100.00
2023-02-27T04:49:07.243Z,100.00
2023-02-27T04:54:15.273Z,100.00
2023-02-27T04:59:24.472Z,100.00
2023-02-27T05:04:32.739Z,100.00
2023-02-27T05:09:43.193Z,100.00
2023-02-27T05:14:53.222Z,100.00
2023-02-27T05:19:57.189Z,100.00
2023-02-27T05:25:07.531Z,100.00
2023-02-27T05:30:21.122Z,100.00
2023-02-27T05:35:29.697Z,100.00
2023-02-27T05:40:37.617Z,100.00
2023-02-27T05:45:48.247Z,100.00
2023-02-27T05:50:54.237Z,100.00
2023-02-27T05:56:03.308Z,100.00
2023-02-27T06:01:09.822Z,100.00
2023-02-27T06:06:17.238Z,100.00
2023-02-27T06:11:20.952Z,100.00
2023-02-27T06:16:26.612Z,100.00
2023-02-27T06:21:30.682Z,100.00
2023-02-27T06:26:34.412Z,100.00
2023-02-27T06:31:39.493Z,100.00
2023-02-27T06:36:43.319Z,100.00
2023-02-27T06:41:46.997Z,100.00
2023-02-27T06:46:52.013Z,100.00
2023-02-27T06:51:55.673Z,100.00
2023-02-27T06:56:59.342Z,100.00
2023-02-27T07:02:04.480Z,100.00
2023-02-27T07:07:36.467Z,100.00
2023-02-27T07:12:32.241Z,100.00
2023-02-27T07:17:37.899Z,100.00
2023-02-27T07:22:42.244Z,100.00
2023-02-27T07:27:46.293Z,100.00
2023-02-27T07:32:51.755Z,100.00
2023-02-27T07:37:55.486Z,100.00
2023-02-27T07:42:59.216Z,100.00
2023-02-27T07:48:04.659Z,100.00
2023-02-27T07:53:08.526Z,100.00
2023-02-27T07:58:12.256Z,100.00
2023-02-27T08:03:17.315Z,100.00
2023-02-27T08:08:21.891Z,100.00
2023-02-27T08:13:55.646Z,100.00
2023-02-27T08:18:50.916Z,100.00
2023-02-27T08:23:54.902Z,100.00
2023-02-27T08:28:58.669Z,100.00
2023-02-27T08:34:10.111Z,100.00
2023-02-27T08:39:14.185Z,100.00
2023-02-27T08:44:17.933Z,100.00
2023-02-27T08:49:25.142Z,100.00
2023-02-27T08:54:28.904Z,100.00
2023-02-27T08:59:33.112Z,100.00
2023-02-27T09:04:38.273Z,100.00
2023-02-27T09:09:41.945Z,100.00
2023-02-27T09:14:45.652Z,100.00
2023-02-27T09:19:51.381Z,100.00
2023-02-27T09:24:55.137Z,100.00
2023-02-27T09:29:59.409Z,100.00
2023-02-27T09:35:04.789Z,100.00
2023-02-27T09:40:11.720Z,100.00
2023-02-27T09:45:23.374Z,100.00
2023-02-27T09:50:37.738Z,100.00
2023-02-27T09:55:43.772Z,100.00
2023-02-27T10:00:52.253Z,100.00
2023-02-27T10:06:13.078Z,100.00
2023-02-27T10:11:22.946Z,100.00
2023-02-27T10:16:28.799Z,100.00
2023-02-27T10:21:36.556Z,100.00
2023-02-27T10:26:43.792Z,100.00
2023-02-27T10:31:51.443Z,100.00
2023-02-27T10:36:56.712Z,100.00
2023-02-27T10:42:06.688Z,100.00
2023-02-27T10:47:15.746Z,100.00
2023-02-27T10:52:21.128Z,100.00
2023-02-27T10:57:30.368Z,100.00
2023-02-27T11:02:39.080Z,100.00
2023-02-27T11:07:44.226Z,100.00
2023-02-27T11:13:04.719Z,95.72
2023-02-27T11:18:22.766Z,68.26
2023-02-27T11:23:29.375Z,64.17
2023-02-27T11:28:33.094Z,60.94
2023-02-27T11:33:40.517Z,59.25
2023-02-27T11:38:54.000Z,55.21
2023-02-27T11:43:58.865Z,51.19
2023-02-27T11:49:15.361Z,50.71
2023-02-27T11:54:37.217Z,47.89
2023-02-27T11:59:45.723Z,45.34
2023-02-27T12:04:53.451Z,44.93
2023-02-27T12:10:07.541Z,45.22
2023-02-27T12:15:22.344Z,44.23
2023-02-27T12:20:35.105Z,43.99
2023-02-27T12:25:46.380Z,43.98
2023-02-27T12:31:03.212Z,44.00
2023-02-27T12:36:11.888Z,45.02
2023-02-27T12:41:36.639Z,46.25
2023-02-27T12:46:49.472Z,47.32
2023-02-27T12:52:04.488Z,48.19
2023-02-27T12:57:28.930Z,48.81
2023-02-27T13:02:45.113Z,48.83
2023-02-27T13:07:55.847Z,49.67
2023-02-27T13:13:09.620Z,50.29
2023-02-27T13:18:29.375Z,50.92
2023-02-27T13:23:36.434Z,50.66
2023-02-27T13:28:41.727Z,51.44
2023-02-27T13:33:53.310Z,51.48
2023-02-27T13:38:57.764Z,51.30
2023-02-27T13:44:39.939Z,48.92
2023-02-27T13:49:44.087Z,43.59
2023-02-27T13:54:47.809Z,43.59
2023-02-27T13:59:58.970Z,43.99
2023-02-27T14:05:06.689Z,43.00
2023-02-27T14:10:12.287Z,43.08
2023-02-27T14:15:52.299Z,45.18
2023-02-27T14:20:56.029Z,46.25
2023-02-27T14:26:07.169Z,47.13
2023-02-27T14:31:22.809Z,47.50
2023-02-27T14:36:30.138Z,46.93
2023-02-27T14:41:42.318Z,46.39
2023-02-27T14:46:47.522Z,45.96
2023-02-27T14:51:51.607Z,47.53
2023-02-27T14:56:56.871Z,48.15
2023-02-27T15:02:04.372Z,47.91
2023-02-27T15:07:24.516Z,47.72
2023-02-27T15:12:29.249Z,48.09
2023-02-27T15:17:41.268Z,48.81
2023-02-27T15:22:45.029Z,46.94
2023-02-27T15:27:48.800Z,46.61
2023-02-27T15:32:55.862Z,47.18
2023-02-27T15:38:02.499Z,47.07
2023-02-27T15:43:06.751Z,47.57
2023-02-27T15:48:15.337Z,47.54
2023-02-27T15:53:21.593Z,47.11
2023-02-27T15:58:27.339Z,47.63
2023-02-27T16:03:36.808Z,48.89
2023-02-27T16:08:47.377Z,49.40
2023-02-27T16:13:51.894Z,50.51
2023-02-27T16:18:59.813Z,51.35
2023-02-27T16:24:19.898Z,53.72
2023-02-27T16:29:25.035Z,54.54
2023-02-27T16:34:44.562Z,55.48
2023-02-27T16:39:51.057Z,56.32
2023-02-27T16:44:54.925Z,57.22
2023-02-27T16:50:00.057Z,58.47
2023-02-27T16:55:03.815Z,60.61
2023-02-27T17:00:08.808Z,60.85
2023-02-27T17:05:15.142Z,61.67
2023-02-27T17:10:22.048Z,62.00
2023-02-27T17:15:27.637Z,63.71
2023-02-27T17:20:32.695Z,65.46
2023-02-27T17:25:36.448Z,66.55
2023-02-27T17:30:41.507Z,69.39
2023-02-27T17:35:46.763Z,69.11
2023-02-27T17:40:50.858Z,71.42
2023-02-27T17:45:55.234Z,73.41
2023-02-27T17:51:07.324Z,74.96
2023-02-27T17:56:12.929Z,78.94
2023-02-27T18:01:20.412Z,80.31
2023-02-27T18:06:25.967Z,79.93
2023-02-27T18:11:30.001Z,82.16
2023-02-27T18:16:33.853Z,85.01
2023-02-27T18:21:39.309Z,85.55
2023-02-27T18:26:43.624Z,86.40
2023-02-27T18:31:50.138Z,90.65
2023-02-27T18:36:57.872Z,93.21
2023-02-27T18:42:01.952Z,94.77
2023-02-27T18:47:05.995Z,96.63
2023-02-27T18:52:11.256Z,99.89
2023-02-27T18:57:15.537Z,99.62
2023-02-27T19:02:20.283Z,100.00
2023-02-27T19:07:25.683Z,100.00
2023-02-27T19:12:29.457Z,100.00
2023-02-27T19:17:33.814Z,100.00
2023-02-27T19:22:39.194Z,100.00
2023-02-27T19:27:45.021Z,100.00
2023-02-27T19:32:48.943Z,100.00
2023-02-27T19:37:58.112Z,100.00
2023-02-27T19:43:02.309Z,100.00
2023-02-27T19:48:06.557Z,100.00
2023-02-27T19:53:11.888Z,100.00
2023-02-27T19:58:15.623Z,100.00
2023-02-27T20:03:19.377Z,100.00
2023-02-27T20:08:24.728Z,100.00
2023-02-27T20:13:29.110Z,100.00
2023-02-27T20:18:33.419Z,100.00
2023-02-27T20:23:40.689Z,100.00
2023-02-27T20:28:44.877Z,100.00
2023-02-27T20:33:49.125Z,100.00
2023-02-27T20:38:54.342Z,100.00
2023-02-27T20:43:58.604Z,100.00
2023-02-27T20:49:03.963Z,100.00
2023-02-27T20:54:13.386Z,100.00
2023-02-27T20:59:18.313Z,100.00
2023-02-27T21:04:23.997Z,100.00
2023-02-27T21:09:29.038Z,100.00
2023-02-27T21:14:33.037Z,100.00
2023-02-27T21:19:36.833Z,100.00
2023-02-27T21:24:41.889Z,100.00
2023-02-27T21:29:45.538Z,100.00
2023-02-27T21:34:49.319Z,100.00
2023-02-27T21:39:57.176Z,100.00
2023-02-27T21:45:00.907Z,100.00
2023-02-27T21:50:14.094Z,100.00
2023-02-27T21:55:19.253Z,100.00
2023-02-27T22:00:26.480Z,100.00
2023-02-27T22:05:30.140Z,100.00
2023-02-27T22:10:42.839Z,100.00
2023-02-27T22:15:46.620Z,100.00
2023-02-27T22:20:50.337Z,100.00
2023-02-27T22:26:05.994Z,100.00
2023-02-27T22:31:11.540Z,100.00
2023-02-27T22:36:17.081Z,100.00
2023-02-27T22:41:24.199Z,100.00
2023-02-27T22:46:30.064Z,100.00
2023-02-27T22:51:33.934Z,100.00
2023-02-27T22:56:39.065Z,100.00
2023-02-27T23:01:42.866Z,100.00
2023-02-27T23:06:46.770Z,100.00
2023-02-27T23:11:51.871Z,100.00
2023-02-27T23:16:55.607Z,100.00
2023-02-27T23:21:59.295Z,100.00
2023-02-27T23:27:19.628Z,100.00
2023-02-27T23:32:28.714Z,100.00
2023-02-27T23:37:32.405Z,100.00
2023-02-27T23:42:37.452Z,100.00
2023-02-27T23:47:44.401Z,100.00
2023-02-27T23:52:48.802Z,100.00
2023-02-27T23:57:55.446Z,100.00
